sensor_id;sensor_type;location;lat;lon;timestamp;temperature;humidity
4207;DHT22;2117;47.972;7.830;2022-08-21T03:33:06;15.00;99.90
4207;DHT22;2117;47.972;7.830;2022-08-21T03:35:32;15.00;99.90
4207;DHT22;2117;47.972;7.830;2022-08-21T03:37:57;14.90;99.90
4207;DHT22;2117;47.972;7.830;2022-08-21T03:40:25;14.90;99.90
4207;DHT22;2117;47.972;7.830;2022-08-21T03:42:51;14.90;99.90
4207;DHT22;2117;47.972;7.830;2022-08-21T03:47:56;14.80;99.90
4207;DHT22;2117;47.972;7.830;2022-08-21T03:50:24;14.80;99.90
4207;DHT22;2117;47.972;7.830;2022-08-21T03:52:50;14.80;99.90
4207;DHT22;2117;47.972;7.830;2022-08-21T03:55:16;14.80;99.90
4207;DHT22;2117;47.972;7.830;2022-08-21T03:57:42;14.80;99.90
4207;DHT22;2117;47.972;7.830;2022-08-21T04:00:08;14.80;99.90
4207;DHT22;2117;47.972;7.830;2022-08-21T04:02:37;14.80;99.90
4207;DHT22;2117;47.972;7.830;2022-08-21T04:05:03;14.70;99.90
4207;DHT22;2117;47.972;7.830;2022-08-21T04:07:29;14.70;99.90
4207;DHT22;2117;47.972;7.830;2022-08-21T04:09:55;14.70;99.90
4207;DHT22;2117;47.972;7.830;2022-08-21T04:12:20;14.70;99.90
4207;DHT22;2117;47.972;7.830;2022-08-21T04:14:46;14.60;99.90
4207;DHT22;2117;47.972;7.830;2022-08-21T04:17:12;14.60;99.90
4207;DHT22;2117;47.972;7.830;2022-08-21T04:19:37;14.60;99.90
4207;DHT22;2117;47.972;7.830;2022-08-21T04:22:03;14.60;99.90
4207;DHT22;2117;47.972;7.830;2022-08-21T04:24:29;14.60;99.90
4207;DHT22;2117;47.972;7.830;2022-08-21T04:26:55;14.60;99.90
4207;DHT22;2117;47.972;7.830;2022-08-21T04:29:20;14.60;99.90
4207;DHT22;2117;47.972;7.830;2022-08-21T04:31:46;14.60;99.90
4207;DHT22;2117;47.972;7.830;2022-08-21T04:34:12;14.60;99.90
4207;DHT22;2117;47.972;7.830;2022-08-21T04:36:37;14.60;99.90
4207;DHT22;2117;47.972;7.830;2022-08-21T04:39:03;14.50;99.90
4207;DHT22;2117;47.972;7.830;2022-08-21T04:41:29;14.60;99.90
4207;DHT22;2117;47.972;7.830;2022-08-21T04:43:55;14.60;99.90
4207;DHT22;2117;47.972;7.830;2022-08-21T04:46:21;14.50;99.90
4207;DHT22;2117;47.972;7.830;2022-08-21T04:48:47;14.50;99.90
4207;DHT22;2117;47.972;7.830;2022-08-21T04:51:33;14.60;99.90
4207;DHT22;2117;47.972;7.830;2022-08-21T04:54:23;14.50;99.90
4207;DHT22;2117;47.972;7.830;2022-08-21T04:56:49;14.60;99.90
4207;DHT22;2117;47.972;7.830;2022-08-21T04:59:30;14.60;99.90
4207;DHT22;2117;47.972;7.830;2022-08-21T05:01:57;14.60;99.90
4207;DHT22;2117;47.972;7.830;2022-08-21T05:04:27;14.60;99.90
4207;DHT22;2117;47.972;7.830;2022-08-21T05:06:55;14.60;99.90
4207;DHT22;2117;47.972;7.830;2022-08-21T05:09:23;14.70;99.90
4207;DHT22;2117;47.972;7.830;2022-08-21T05:11:49;14.70;99.90
4207;DHT22;2117;47.972;7.830;2022-08-21T05:14:17;14.80;99.90
4207;DHT22;2117;47.972;7.830;2022-08-21T05:16:43;14.90;99.90
4207;DHT22;2117;47.972;7.830;2022-08-21T05:19:09;15.00;99.90
4207;DHT22;2117;47.972;7.830;2022-08-21T05:21:39;15.00;99.90
4207;DHT22;2117;47.972;7.830;2022-08-21T05:24:04;15.00;99.90
4207;DHT22;2117;47.972;7.830;2022-08-21T05:26:30;15.10;99.90
4207;DHT22;2117;47.972;7.830;2022-08-21T05:28:56;15.20;99.90
4207;DHT22;2117;47.972;7.830;2022-08-21T05:31:22;15.40;99.90
4207;DHT22;2117;47.972;7.830;2022-08-21T05:33:47;15.60;99.90
4207;DHT22;2117;47.972;7.830;2022-08-21T05:36:13;15.80;99.90
4207;DHT22;2117;47.972;7.830;2022-08-21T05:38:39;16.10;99.90
4207;DHT22;2117;47.972;7.830;2022-08-21T05:41:04;16.50;99.90
4207;DHT22;2117;47.972;7.830;2022-08-21T05:43:30;16.50;99.90
4207;DHT22;2117;47.972;7.830;2022-08-21T05:45:58;16.80;99.90
4207;DHT22;2117;47.972;7.830;2022-08-21T05:48:24;17.00;99.90
4207;DHT22;2117;47.972;7.830;2022-08-21T05:50:51;17.10;99.90
4207;DHT22;2117;47.972;7.830;2022-08-21T05:53:18;17.30;99.90
4207;DHT22;2117;47.972;7.830;2022-08-21T05:55:44;17.30;99.90
4207;DHT22;2117;47.972;7.830;2022-08-21T05:58:12;17.40;99.90
4207;DHT22;2117;47.972;7.830;2022-08-21T06:00:38;17.50;99.90
4207;DHT22;2117;47.972;7.830;2022-08-21T06:03:03;17.70;99.90
4207;DHT22;2117;47.972;7.830;2022-08-21T06:05:29;17.90;99.90
4207;DHT22;2117;47.972;7.830;2022-08-21T06:07:55;17.80;99.90
4207;DHT22;2117;47.972;7.830;2022-08-21T06:10:21;18.00;99.90
4207;DHT22;2117;47.972;7.830;2022-08-21T06:12:47;18.10;99.90
4207;DHT22;2117;47.972;7.830;2022-08-21T06:15:17;18.20;99.90
4207;DHT22;2117;47.972;7.830;2022-08-21T06:17:43;18.30;99.90
4207;DHT22;2117;47.972;7.830;2022-08-21T06:20:09;18.40;99.90
4207;DHT22;2117;47.972;7.830;2022-08-21T06:22:34;18.50;99.90
4207;DHT22;2117;47.972;7.830;2022-08-21T06:25:00;18.60;99.90
4207;DHT22;2117;47.972;7.830;2022-08-21T06:27:26;18.70;99.90
4207;DHT22;2117;47.972;7.830;2022-08-21T06:29:51;18.80;99.90
4207;DHT22;2117;47.972;7.830;2022-08-21T06:32:17;18.90;99.90
4207;DHT22;2117;47.972;7.830;2022-08-21T06:34:43;19.00;99.90
4207;DHT22;2117;47.972;7.830;2022-08-21T06:37:08;19.00;99.90
4207;DHT22;2117;47.972;7.830;2022-08-21T06:39:34;19.10;99.90
4207;DHT22;2117;47.972;7.830;2022-08-21T06:42:01;19.10;99.90
4207;DHT22;2117;47.972;7.830;2022-08-21T06:44:26;19.20;99.90
4207;DHT22;2117;47.972;7.830;2022-08-21T06:46:52;19.20;99.90
4207;DHT22;2117;47.972;7.830;2022-08-21T06:49:18;19.10;99.90
4207;DHT22;2117;47.972;7.830;2022-08-21T06:51:43;19.10;99.90
4207;DHT22;2117;47.972;7.830;2022-08-21T06:54:09;19.10;99.90
4207;DHT22;2117;47.972;7.830;2022-08-21T06:56:35;19.10;99.90
4207;DHT22;2117;47.972;7.830;2022-08-21T06:59:03;19.10;99.90
4207;DHT22;2117;47.972;7.830;2022-08-21T07:01:29;19.10;99.90
4207;DHT22;2117;47.972;7.830;2022-08-21T07:03:55;19.10;99.90
4207;DHT22;2117;47.972;7.830;2022-08-21T07:06:20;19.00;99.90
4207;DHT22;2117;47.972;7.830;2022-08-21T07:08:46;18.90;99.90
4207;DHT22;2117;47.972;7.830;2022-08-21T07:11:19;18.80;99.90
4207;DHT22;2117;47.972;7.830;2022-08-21T07:13:45;18.60;99.90
4207;DHT22;2117;47.972;7.830;2022-08-21T07:16:11;18.50;99.90
4207;DHT22;2117;47.972;7.830;2022-08-21T07:18:37;18.50;99.90
4207;DHT22;2117;47.972;7.830;2022-08-21T07:21:04;18.50;99.90
4207;DHT22;2117;47.972;7.830;2022-08-21T07:23:34;18.50;99.90
4207;DHT22;2117;47.972;7.830;2022-08-21T07:26:00;18.50;99.90
4207;DHT22;2117;47.972;7.830;2022-08-21T07:28:27;18.50;99.90
4207;DHT22;2117;47.972;7.830;2022-08-21T07:30:55;18.60;99.90
4207;DHT22;2117;47.972;7.830;2022-08-21T07:33:22;18.70;99.90
4207;DHT22;2117;47.972;7.830;2022-08-21T07:35:48;18.70;99.90
4207;DHT22;2117;47.972;7.830;2022-08-21T07:38:14;18.80;99.90
4207;DHT22;2117;47.972;7.830;2022-08-21T07:40:39;18.80;99.90
4207;DHT22;2117;47.972;7.830;2022-08-21T07:43:05;18.80;99.90
4207;DHT22;2117;47.972;7.830;2022-08-21T07:45:31;18.80;99.90
4207;DHT22;2117;47.972;7.830;2022-08-21T07:47:57;18.80;99.90
4207;DHT22;2117;47.972;7.830;2022-08-21T07:50:23;18.80;99.90
4207;DHT22;2117;47.972;7.830;2022-08-21T07:52:49;18.80;99.90
4207;DHT22;2117;47.972;7.830;2022-08-21T07:55:17;18.80;99.90
4207;DHT22;2117;47.972;7.830;2022-08-21T07:57:44;18.90;99.90
4207;DHT22;2117;47.972;7.830;2022-08-21T08:00:13;18.80;99.90
4207;DHT22;2117;47.972;7.830;2022-08-21T08:02:39;18.80;99.90
4207;DHT22;2117;47.972;7.830;2022-08-21T08:05:08;18.80;99.90
4207;DHT22;2117;47.972;7.830;2022-08-21T08:07:35;18.90;99.90
4207;DHT22;2117;47.972;7.830;2022-08-21T08:10:02;19.00;99.90
4207;DHT22;2117;47.972;7.830;2022-08-21T08:12:28;19.10;99.90
4207;DHT22;2117;47.972;7.830;2022-08-21T08:14:58;19.10;99.90
4207;DHT22;2117;47.972;7.830;2022-08-21T08:17:24;19.20;99.90
4207;DHT22;2117;47.972;7.830;2022-08-21T08:19:51;19.30;99.90
4207;DHT22;2117;47.972;7.830;2022-08-21T08:22:17;19.30;99.90
4207;DHT22;2117;47.972;7.830;2022-08-21T08:24:47;19.40;99.90
4207;DHT22;2117;47.972;7.830;2022-08-21T08:27:14;19.50;99.90
4207;DHT22;2117;47.972;7.830;2022-08-21T08:29:40;19.50;99.90
4207;DHT22;2117;47.972;7.830;2022-08-21T08:32:06;19.60;99.90
4207;DHT22;2117;47.972;7.830;2022-08-21T08:34:36;19.70;99.90
4207;DHT22;2117;47.972;7.830;2022-08-21T08:37:03;19.80;99.90
4207;DHT22;2117;47.972;7.830;2022-08-21T08:39:29;19.90;99.90
4207;DHT22;2117;47.972;7.830;2022-08-21T08:44:27;20.10;99.90
4207;DHT22;2117;47.972;7.830;2022-08-21T08:46:53;20.10;99.90
4207;DHT22;2117;47.972;7.830;2022-08-21T08:49:37;20.30;99.90
4207;DHT22;2117;47.972;7.830;2022-08-21T08:52:11;20.30;99.90
4207;DHT22;2117;47.972;7.830;2022-08-21T08:54:45;20.40;99.90
4207;DHT22;2117;47.972;7.830;2022-08-21T08:57:17;20.50;99.90
4207;DHT22;2117;47.972;7.830;2022-08-21T08:59:49;20.60;99.90
4207;DHT22;2117;47.972;7.830;2022-08-21T09:02:16;20.60;99.90
4207;DHT22;2117;47.972;7.830;2022-08-21T09:04:45;20.70;99.90
4207;DHT22;2117;47.972;7.830;2022-08-21T09:07:26;20.70;99.90
4207;DHT22;2117;47.972;7.830;2022-08-21T09:10:41;20.90;99.90
4207;DHT22;2117;47.972;7.830;2022-08-21T09:13:41;21.00;99.90
4207;DHT22;2117;47.972;7.830;2022-08-21T09:16:40;21.00;99.90
4207;DHT22;2117;47.972;7.830;2022-08-21T09:22:43;21.10;99.90
4207;DHT22;2117;47.972;7.830;2022-08-21T09:25:24;21.30;99.90
4207;DHT22;2117;47.972;7.830;2022-08-21T09:27:51;21.40;99.90
4207;DHT22;2117;47.972;7.830;2022-08-21T09:30:17;21.50;99.90
4207;DHT22;2117;47.972;7.830;2022-08-21T09:32:44;21.60;99.90
4207;DHT22;2117;47.972;7.830;2022-08-21T09:35:13;21.60;99.90
4207;DHT22;2117;47.972;7.830;2022-08-21T09:38:00;21.70;99.90
4207;DHT22;2117;47.972;7.830;2022-08-21T09:40:41;21.70;99.90
4207;DHT22;2117;47.972;7.830;2022-08-21T09:43:19;21.90;99.90
4207;DHT22;2117;47.972;7.830;2022-08-21T09:45:46;22.00;99.90
4207;DHT22;2117;47.972;7.830;2022-08-21T09:48:21;22.10;99.90
4207;DHT22;2117;47.972;7.830;2022-08-21T09:50:48;22.30;99.90
4207;DHT22;2117;47.972;7.830;2022-08-21T09:53:18;22.40;99.90
4207;DHT22;2117;47.972;7.830;2022-08-21T09:55:57;22.60;99.90
4207;DHT22;2117;47.972;7.830;2022-08-21T09:58:45;22.80;99.90
4207;DHT22;2117;47.972;7.830;2022-08-21T10:01:21;22.80;99.90
4207;DHT22;2117;47.972;7.830;2022-08-21T10:03:48;22.90;99.90
4207;DHT22;2117;47.972;7.830;2022-08-21T10:06:28;23.00;99.90
4207;DHT22;2117;47.972;7.830;2022-08-21T10:09:09;23.10;99.90
4207;DHT22;2117;47.972;7.830;2022-08-21T10:11:35;23.30;99.90
4207;DHT22;2117;47.972;7.830;2022-08-21T10:17:21;23.60;99.90
4207;DHT22;2117;47.972;7.830;2022-08-21T10:25:42;24.10;99.90
4207;DHT22;2117;47.972;7.830;2022-08-21T10:31:39;24.40;99.90
4207;DHT22;2117;47.972;7.830;2022-08-21T10:34:13;24.60;99.90
4207;DHT22;2117;47.972;7.830;2022-08-21T10:45:25;25.70;99.90
4207;DHT22;2117;47.972;7.830;2022-08-21T10:47:56;26.00;99.90
4207;DHT22;2117;47.972;7.830;2022-08-21T10:50:45;26.20;99.90
4207;DHT22;2117;47.972;7.830;2022-08-21T10:58:29;27.00;99.90
4207;DHT22;2117;47.972;7.830;2022-08-21T11:01:11;27.10;98.70
4207;DHT22;2117;47.972;7.830;2022-08-21T11:04:02;26.90;99.20
4207;DHT22;2117;47.972;7.830;2022-08-21T11:06:32;27.00;98.40
4207;DHT22;2117;47.972;7.830;2022-08-21T11:09:14;27.30;98.00
4207;DHT22;2117;47.972;7.830;2022-08-21T11:11:55;27.80;98.40
4207;DHT22;2117;47.972;7.830;2022-08-21T11:14:51;28.30;96.90
4207;DHT22;2117;47.972;7.830;2022-08-21T11:17:32;28.30;95.70
4207;DHT22;2117;47.972;7.830;2022-08-21T11:20:27;27.90;95.50
4207;DHT22;2117;47.972;7.830;2022-08-21T11:23:49;27.80;95.60
4207;DHT22;2117;47.972;7.830;2022-08-21T11:26:41;28.40;95.70
4207;DHT22;2117;47.972;7.830;2022-08-21T11:29:13;28.20;94.30
4207;DHT22;2117;47.972;7.830;2022-08-21T11:39:48;28.40;94.70
4207;DHT22;2117;47.972;7.830;2022-08-21T11:42:35;28.40;94.10
4207;DHT22;2117;47.972;7.830;2022-08-21T11:45:26;28.70;94.90
4207;DHT22;2117;47.972;7.830;2022-08-21T11:51:10;30.00;92.30
4207;DHT22;2117;47.972;7.830;2022-08-21T11:53:38;30.90;92.30
4207;DHT22;2117;47.972;7.830;2022-08-21T11:56:11;31.40;92.10
4207;DHT22;2117;47.972;7.830;2022-08-21T11:58:56;31.10;90.50
4207;DHT22;2117;47.972;7.830;2022-08-21T12:01:27;30.40;90.40
4207;DHT22;2117;47.972;7.830;2022-08-21T12:04:02;30.30;90.30
4207;DHT22;2117;47.972;7.830;2022-08-21T12:06:35;30.90;91.00
4207;DHT22;2117;47.972;7.830;2022-08-21T12:09:05;31.20;90.50
4207;DHT22;2117;47.972;7.830;2022-08-21T12:11:31;30.50;89.60
4207;DHT22;2117;47.972;7.830;2022-08-21T12:13:58;30.30;90.40
4207;DHT22;2117;47.972;7.830;2022-08-21T12:16:37;30.60;91.20
4207;DHT22;2117;47.972;7.830;2022-08-21T12:21:59;30.90;91.70
4207;DHT22;2117;47.972;7.830;2022-08-21T12:29:29;29.50;89.10
4207;DHT22;2117;47.972;7.830;2022-08-21T12:32:01;29.30;90.50
4207;DHT22;2117;47.972;7.830;2022-08-21T12:34:38;28.80;90.30
4207;DHT22;2117;47.972;7.830;2022-08-21T12:37:16;28.60;92.00
4207;DHT22;2117;47.972;7.830;2022-08-21T12:39:46;28.70;92.40
4207;DHT22;2117;47.972;7.830;2022-08-21T12:42:38;28.70;90.60
4207;DHT22;2117;47.972;7.830;2022-08-21T12:45:20;28.60;92.80
4207;DHT22;2117;47.972;7.830;2022-08-21T12:48:36;28.70;93.10
4207;DHT22;2117;47.972;7.830;2022-08-21T12:51:12;29.40;91.10
4207;DHT22;2117;47.972;7.830;2022-08-21T12:56:16;29.60;91.10
4207;DHT22;2117;47.972;7.830;2022-08-21T12:58:51;29.40;91.10
4207;DHT22;2117;47.972;7.830;2022-08-21T13:01:48;30.00;92.00
4207;DHT22;2117;47.972;7.830;2022-08-21T13:04:20;30.80;91.10
4207;DHT22;2117;47.972;7.830;2022-08-21T13:06:50;31.20;90.70
4207;DHT22;2117;47.972;7.830;2022-08-21T13:09:20;31.20;91.00
4207;DHT22;2117;47.972;7.830;2022-08-21T13:11:48;30.80;91.10
4207;DHT22;2117;47.972;7.830;2022-08-21T13:16:56;30.00;91.50
4207;DHT22;2117;47.972;7.830;2022-08-21T13:19:22;29.40;91.20
4207;DHT22;2117;47.972;7.830;2022-08-21T13:21:48;28.80;90.50
4207;DHT22;2117;47.972;7.830;2022-08-21T13:24:19;28.30;91.00
4207;DHT22;2117;47.972;7.830;2022-08-21T13:26:46;28.00;91.90
4207;DHT22;2117;47.972;7.830;2022-08-21T13:29:16;27.80;92.80
4207;DHT22;2117;47.972;7.830;2022-08-21T13:31:47;27.60;93.00
4207;DHT22;2117;47.972;7.830;2022-08-21T13:34:14;27.50;92.40
4207;DHT22;2117;47.972;7.830;2022-08-21T13:36:42;27.40;92.60
4207;DHT22;2117;47.972;7.830;2022-08-21T13:39:10;27.30;91.90
4207;DHT22;2117;47.972;7.830;2022-08-21T13:41:41;27.40;93.50
4207;DHT22;2117;47.972;7.830;2022-08-21T13:44:20;27.30;93.00
4207;DHT22;2117;47.972;7.830;2022-08-21T13:46:48;28.20;92.50
4207;DHT22;2117;47.972;7.830;2022-08-21T13:49:17;28.20;93.30
4207;DHT22;2117;47.972;7.830;2022-08-21T13:51:44;29.20;91.60
4207;DHT22;2117;47.972;7.830;2022-08-21T13:54:36;30.20;92.80
4207;DHT22;2117;47.972;7.830;2022-08-21T13:57:02;32.10;91.60
4207;DHT22;2117;47.972;7.830;2022-08-21T13:59:35;32.10;91.40
4207;DHT22;2117;47.972;7.830;2022-08-21T14:02:08;32.70;89.80
4207;DHT22;2117;47.972;7.830;2022-08-21T14:04:43;33.20;84.20
4207;DHT22;2117;47.972;7.830;2022-08-21T14:07:21;33.40;84.50
4207;DHT22;2117;47.972;7.830;2022-08-21T14:09:50;33.10;84.80
4207;DHT22;2117;47.972;7.830;2022-08-21T14:12:28;33.50;87.70
4207;DHT22;2117;47.972;7.830;2022-08-21T14:14:56;34.00;84.30
4207;DHT22;2117;47.972;7.830;2022-08-21T14:17:32;34.60;81.10
4207;DHT22;2117;47.972;7.830;2022-08-21T14:19:58;34.80;79.70
4207;DHT22;2117;47.972;7.830;2022-08-21T14:22:28;34.90;78.30
4207;DHT22;2117;47.972;7.830;2022-08-21T14:25:28;35.20;81.00
4207;DHT22;2117;47.972;7.830;2022-08-21T14:28:07;35.40;78.90
4207;DHT22;2117;47.972;7.830;2022-08-21T14:30:40;35.60;80.00
4207;DHT22;2117;47.972;7.830;2022-08-21T14:33:21;36.00;78.50
4207;DHT22;2117;47.972;7.830;2022-08-21T14:35:48;36.20;73.30
4207;DHT22;2117;47.972;7.830;2022-08-21T14:38:18;36.40;77.40
4207;DHT22;2117;47.972;7.830;2022-08-21T14:40:48;36.50;76.30
4207;DHT22;2117;47.972;7.830;2022-08-21T14:43:15;36.40;75.60
4207;DHT22;2117;47.972;7.830;2022-08-21T14:45:40;36.30;71.40
4207;DHT22;2117;47.972;7.830;2022-08-21T14:48:07;36.30;71.10
4207;DHT22;2117;47.972;7.830;2022-08-21T14:50:33;36.30;71.40
4207;DHT22;2117;47.972;7.830;2022-08-21T14:52:58;36.30;72.10
4207;DHT22;2117;47.972;7.830;2022-08-21T14:55:25;36.40;70.00
4207;DHT22;2117;47.972;7.830;2022-08-21T14:57:52;36.60;73.50
4207;DHT22;2117;47.972;7.830;2022-08-21T15:00:21;36.90;68.40
4207;DHT22;2117;47.972;7.830;2022-08-21T15:02:51;36.90;71.30
4207;DHT22;2117;47.972;7.830;2022-08-21T15:05:17;36.80;72.70
4207;DHT22;2117;47.972;7.830;2022-08-21T15:07:43;36.30;74.10
4207;DHT22;2117;47.972;7.830;2022-08-21T15:10:11;35.70;71.90
4207;DHT22;2117;47.972;7.830;2022-08-21T15:12:37;35.10;72.70
4207;DHT22;2117;47.972;7.830;2022-08-21T15:15:05;34.50;71.60
4207;DHT22;2117;47.972;7.830;2022-08-21T15:17:31;34.10;72.40
4207;DHT22;2117;47.972;7.830;2022-08-21T15:19:57;33.80;73.60
4207;DHT22;2117;47.972;7.830;2022-08-21T15:22:22;33.30;72.50
4207;DHT22;2117;47.972;7.830;2022-08-21T15:24:48;32.80;76.00
4207;DHT22;2117;47.972;7.830;2022-08-21T15:27:14;32.90;75.70
4207;DHT22;2117;47.972;7.830;2022-08-21T15:29:41;32.90;77.90
4207;DHT22;2117;47.972;7.830;2022-08-21T15:32:24;32.80;76.00
4207;DHT22;2117;47.972;7.830;2022-08-21T15:34:51;32.70;75.60
4207;DHT22;2117;47.972;7.830;2022-08-21T15:37:17;32.60;75.60
4207;DHT22;2117;47.972;7.830;2022-08-21T15:39:43;32.40;77.30
4207;DHT22;2117;47.972;7.830;2022-08-21T15:42:10;32.20;79.70
4207;DHT22;2117;47.972;7.830;2022-08-21T15:44:38;31.80;77.50
4207;DHT22;2117;47.972;7.830;2022-08-21T15:47:03;31.30;75.30
4207;DHT22;2117;47.972;7.830;2022-08-21T15:49:30;31.30;77.70
4207;DHT22;2117;47.972;7.830;2022-08-21T15:51:55;31.00;77.40
4207;DHT22;2117;47.972;7.830;2022-08-21T15:54:21;31.00;75.80
4207;DHT22;2117;47.972;7.830;2022-08-21T15:56:48;30.50;76.20
4207;DHT22;2117;47.972;7.830;2022-08-21T15:59:19;30.50;77.00
4207;DHT22;2117;47.972;7.830;2022-08-21T16:01:48;30.30;76.50
4207;DHT22;2117;47.972;7.830;2022-08-21T16:04:26;30.10;79.50
4207;DHT22;2117;47.972;7.830;2022-08-21T16:06:53;29.70;78.60
4207;DHT22;2117;47.972;7.830;2022-08-21T16:09:19;29.70;79.60
4207;DHT22;2117;47.972;7.830;2022-08-21T16:11:45;29.50;82.60
4207;DHT22;2117;47.972;7.830;2022-08-21T16:14:13;29.30;79.40
4207;DHT22;2117;47.972;7.830;2022-08-21T16:16:39;29.00;78.80
4207;DHT22;2117;47.972;7.830;2022-08-21T16:19:05;28.80;80.60
4207;DHT22;2117;47.972;7.830;2022-08-21T16:21:32;28.70;81.50
4207;DHT22;2117;47.972;7.830;2022-08-21T16:23:58;28.50;82.10
4207;DHT22;2117;47.972;7.830;2022-08-21T16:26:24;28.50;81.50
4207;DHT22;2117;47.972;7.830;2022-08-21T16:28:54;28.40;85.20
4207;DHT22;2117;47.972;7.830;2022-08-21T16:31:22;28.40;83.50
4207;DHT22;2117;47.972;7.830;2022-08-21T16:33:51;28.30;82.60
4207;DHT22;2117;47.972;7.830;2022-08-21T16:36:17;28.10;82.70
4207;DHT22;2117;47.972;7.830;2022-08-21T16:38:43;28.10;84.00
4207;DHT22;2117;47.972;7.830;2022-08-21T16:41:13;28.00;81.40
4207;DHT22;2117;47.972;7.830;2022-08-21T16:43:40;27.90;79.10
4207;DHT22;2117;47.972;7.830;2022-08-21T16:46:09;27.80;78.00
4207;DHT22;2117;47.972;7.830;2022-08-21T16:48:35;27.80;81.20
4207;DHT22;2117;47.972;7.830;2022-08-21T16:51:01;27.80;82.60
4207;DHT22;2117;47.972;7.830;2022-08-21T16:53:27;27.70;78.30
4207;DHT22;2117;47.972;7.830;2022-08-21T16:55:52;27.60;81.40
4207;DHT22;2117;47.972;7.830;2022-08-21T16:58:25;27.60;81.90
4207;DHT22;2117;47.972;7.830;2022-08-21T17:00:51;27.50;84.40
4207;DHT22;2117;47.972;7.830;2022-08-21T17:03:18;27.40;84.90
4207;DHT22;2117;47.972;7.830;2022-08-21T17:05:46;27.20;86.40
4207;DHT22;2117;47.972;7.830;2022-08-21T17:08:12;27.20;86.50
4207;DHT22;2117;47.972;7.830;2022-08-21T17:10:41;27.10;87.20
4207;DHT22;2117;47.972;7.830;2022-08-21T17:13:08;27.00;82.70
4207;DHT22;2117;47.972;7.830;2022-08-21T17:15:35;26.80;80.80
4207;DHT22;2117;47.972;7.830;2022-08-21T17:18:03;26.70;81.30
4207;DHT22;2117;47.972;7.830;2022-08-21T17:20:30;26.70;84.90
4207;DHT22;2117;47.972;7.830;2022-08-21T17:22:56;26.60;80.50
4207;DHT22;2117;47.972;7.830;2022-08-21T17:25:22;26.50;78.60
4207;DHT22;2117;47.972;7.830;2022-08-21T17:27:48;26.40;78.50
4207;DHT22;2117;47.972;7.830;2022-08-21T17:30:15;26.30;78.30
4207;DHT22;2117;47.972;7.830;2022-08-21T17:32:42;26.30;82.00
4207;DHT22;2117;47.972;7.830;2022-08-21T17:35:09;26.20;81.80
4207;DHT22;2117;47.972;7.830;2022-08-21T17:37:35;26.10;82.00
4207;DHT22;2117;47.972;7.830;2022-08-21T17:40:01;26.10;81.50
4207;DHT22;2117;47.972;7.830;2022-08-21T17:42:29;26.00;80.50
4207;DHT22;2117;47.972;7.830;2022-08-21T17:44:55;25.90;80.80
4207;DHT22;2117;47.972;7.830;2022-08-21T17:47:22;25.90;82.60
4207;DHT22;2117;47.972;7.830;2022-08-21T17:49:48;25.90;82.90
4207;DHT22;2117;47.972;7.830;2022-08-21T17:52:13;25.80;83.70
4207;DHT22;2117;47.972;7.830;2022-08-21T17:54:39;25.70;86.00
4207;DHT22;2117;47.972;7.830;2022-08-21T17:57:06;25.70;86.60
4207;DHT22;2117;47.972;7.830;2022-08-21T17:59:32;25.60;89.60
4207;DHT22;2117;47.972;7.830;2022-08-21T18:01:58;25.50;90.00
4207;DHT22;2117;47.972;7.830;2022-08-21T18:04:27;25.40;90.70
4207;DHT22;2117;47.972;7.830;2022-08-21T18:06:54;25.30;91.20
4207;DHT22;2117;47.972;7.830;2022-08-21T18:09:20;25.20;91.90
4207;DHT22;2117;47.972;7.830;2022-08-21T18:11:47;25.10;92.00
4207;DHT22;2117;47.972;7.830;2022-08-21T18:14:13;25.00;92.00
4207;DHT22;2117;47.972;7.830;2022-08-21T18:16:40;25.00;92.20
4207;DHT22;2117;47.972;7.830;2022-08-21T18:19:11;24.90;92.70
4207;DHT22;2117;47.972;7.830;2022-08-21T18:21:40;24.80;93.00
4207;DHT22;2117;47.972;7.830;2022-08-21T18:24:06;24.70;93.00
4207;DHT22;2117;47.972;7.830;2022-08-21T18:26:34;24.60;93.40
4207;DHT22;2117;47.972;7.830;2022-08-21T18:29:05;24.50;93.30
4207;DHT22;2117;47.972;7.830;2022-08-21T18:31:33;24.30;93.40
4207;DHT22;2117;47.972;7.830;2022-08-21T18:34:03;24.30;93.70
4207;DHT22;2117;47.972;7.830;2022-08-21T18:36:30;24.20;94.20
4207;DHT22;2117;47.972;7.830;2022-08-21T18:38:56;24.10;93.80
4207;DHT22;2117;47.972;7.830;2022-08-21T18:41:22;24.00;94.20
4207;DHT22;2117;47.972;7.830;2022-08-21T18:43:48;23.90;94.70
4207;DHT22;2117;47.972;7.830;2022-08-21T18:46:14;23.80;94.60
4207;DHT22;2117;47.972;7.830;2022-08-21T18:48:41;23.80;94.80
4207;DHT22;2117;47.972;7.830;2022-08-21T18:51:07;23.70;94.80
4207;DHT22;2117;47.972;7.830;2022-08-21T18:53:32;23.60;94.60
4207;DHT22;2117;47.972;7.830;2022-08-21T18:55:58;23.50;94.30
4207;DHT22;2117;47.972;7.830;2022-08-21T18:58:24;23.50;95.20
4207;DHT22;2117;47.972;7.830;2022-08-21T19:00:50;23.40;94.80
4207;DHT22;2117;47.972;7.830;2022-08-21T19:03:20;23.40;94.40
4207;DHT22;2117;47.972;7.830;2022-08-21T19:05:46;23.30;94.10
4207;DHT22;2117;47.972;7.830;2022-08-21T19:08:15;23.30;94.20
4207;DHT22;2117;47.972;7.830;2022-08-21T19:10:43;23.20;93.50
4207;DHT22;2117;47.972;7.830;2022-08-21T19:13:11;23.10;93.90
4207;DHT22;2117;47.972;7.830;2022-08-21T19:15:41;23.00;94.40
4207;DHT22;2117;47.972;7.830;2022-08-21T19:18:10;22.90;94.60
4207;DHT22;2117;47.972;7.830;2022-08-21T19:20:37;22.80;94.60
4207;DHT22;2117;47.972;7.830;2022-08-21T19:23:08;22.80;94.40
4207;DHT22;2117;47.972;7.830;2022-08-21T19:25:35;22.60;94.10
4207;DHT22;2117;47.972;7.830;2022-08-21T19:28:06;22.60;94.40
4207;DHT22;2117;47.972;7.830;2022-08-21T19:30:37;22.60;94.80
4207;DHT22;2117;47.972;7.830;2022-08-21T19:33:03;22.50;94.20
4207;DHT22;2117;47.972;7.830;2022-08-21T19:35:29;22.40;94.30
4207;DHT22;2117;47.972;7.830;2022-08-21T19:37:55;22.40;95.00
4207;DHT22;2117;47.972;7.830;2022-08-21T19:40:21;22.30;94.80
4207;DHT22;2117;47.972;7.830;2022-08-21T19:42:46;22.20;95.30
4207;DHT22;2117;47.972;7.830;2022-08-21T19:45:12;22.20;96.20
4207;DHT22;2117;47.972;7.830;2022-08-21T19:47:45;22.10;96.30
4207;DHT22;2117;47.972;7.830;2022-08-21T19:50:12;22.10;95.80
4207;DHT22;2117;47.972;7.830;2022-08-21T19:52:38;22.00;95.00
4207;DHT22;2117;47.972;7.830;2022-08-21T19:55:05;21.90;95.50
4207;DHT22;2117;47.972;7.830;2022-08-21T19:57:33;21.80;95.60
4207;DHT22;2117;47.972;7.830;2022-08-21T19:59:59;21.80;95.60
4207;DHT22;2117;47.972;7.830;2022-08-21T20:02:25;21.70;95.20
4207;DHT22;2117;47.972;7.830;2022-08-21T20:04:50;21.60;96.30
4207;DHT22;2117;47.972;7.830;2022-08-21T20:07:16;21.60;97.30
4207;DHT22;2117;47.972;7.830;2022-08-21T20:09:42;21.50;97.10
4207;DHT22;2117;47.972;7.830;2022-08-21T20:12:11;21.40;97.00
4207;DHT22;2117;47.972;7.830;2022-08-21T20:14:44;21.40;97.20
4207;DHT22;2117;47.972;7.830;2022-08-21T20:17:11;21.30;97.40
4207;DHT22;2117;47.972;7.830;2022-08-21T20:19:40;21.20;97.30
4207;DHT22;2117;47.972;7.830;2022-08-21T20:22:06;21.20;97.20
4207;DHT22;2117;47.972;7.830;2022-08-21T20:24:32;21.20;97.30
4207;DHT22;2117;47.972;7.830;2022-08-21T20:26:58;21.10;97.50
4207;DHT22;2117;47.972;7.830;2022-08-21T20:29:25;21.10;97.40
4207;DHT22;2117;47.972;7.830;2022-08-21T20:31:51;21.00;97.50
4207;DHT22;2117;47.972;7.830;2022-08-21T20:34:17;20.90;97.70
4207;DHT22;2117;47.972;7.830;2022-08-21T20:36:42;20.80;97.90
4207;DHT22;2117;47.972;7.830;2022-08-21T20:39:08;20.80;97.60
4207;DHT22;2117;47.972;7.830;2022-08-21T20:41:34;20.70;97.70
4207;DHT22;2117;47.972;7.830;2022-08-21T20:44:00;20.70;97.50
4207;DHT22;2117;47.972;7.830;2022-08-21T20:46:29;20.60;97.60
4207;DHT22;2117;47.972;7.830;2022-08-21T20:48:55;20.60;97.70